Villareales, Texas
Current Conditions -  °F | °C
As of 4:55 PM on Tuesday 21 Oct 2014 (Local Time) from KEBG Reporting Station
Broken Clouds Broken Clouds  
Wind Chill: 81°   Ceiling: 3600
Heat Index: 85°   Visibility: 10mi
Dew Point: 71°   Wind: 9mph
Humidity: 73%   Direction: 90°E
Pressure: 29.92"   Gusts: NA
Location:  26.5735°N, 98.695°W
Report Text: KEBG 212155Z AUTO 09008KT 10SM SCT027 BKN036 BKN045 27/22 A2992 RMK AO2 LTG DSNT NE T02720219
Loading
Personal Weather Stations






























Interactive Weather Map New forecast layout! Learn more

10-Day Weather Forecast

Advertisements
Track Severe Weather on mobile